Time;durP1;ratioP1;P1;durP2;ratioP2;P2;SDS_P1;SDS_P2;PMS_P1;PMS_P2;Temp;Humidity;BMP_temperature;BMP_pressure;BME280_temperature;BME280_humidity;BME280_pressure;Samples;Min_cycle;Max_cycle;Signal;HPM_P1;HPM_P2
2022/09/12 00:00:25;;;;;;;;;;;;;;;12.91;100.00;97855.28;1672814;85;20137;-89
2022/09/12 00:02:53;;;;;;;;;;;;;;;12.90;100.00;97861.28;1661563;85;20163;-86
2022/09/12 00:05:20;;;;;;;;;;;;;;;12.91;100.00;97862.09;1661589;85;20167;-87
2022/09/12 00:07:46;;;;;;;;;;;;;;;12.93;100.00;97858.50;1661685;85;20427;-89
2022/09/12 00:10:12;;;;;;;;;;;;;;;12.94;100.00;97861.48;1666034;85;21903;-89
2022/09/12 00:12:38;;;;;;;;;;;;;;;12.93;100.00;97866.11;1661607;86;20272;-88
2022/09/12 00:15:04;;;;;;;;;;;;;;;12.94;100.00;97866.36;1667418;85;20778;-89
2022/09/12 00:17:30;;;;;;;;;;;;;;;12.94;100.00;97862.84;1689586;85;20165;-89
2022/09/12 00:19:56;;;;;;;;;;;;;;;12.97;100.00;97861.67;1658682;85;20188;-85
2022/09/12 00:22:21;;;;;;;;;;;;;;;12.96;100.00;97857.89;1689570;83;21118;-85
2022/09/12 00:24:47;;;;;;;;;;;;;;;12.96;100.00;97859.26;1689633;85;20516;-89
2022/09/12 00:27:13;;;;;;;;;;;;;;;12.95;100.00;97860.37;1689789;85;20188;-88
2022/09/12 00:29:39;;;;;;;;;;;;;;;12.94;100.00;97861.48;1690250;85;20251;-84
2022/09/12 00:32:04;;;;;;;;;;;;;;;12.92;100.00;97856.34;1689800;84;20168;-88
2022/09/12 00:34:30;;;;;;;;;;;;;;;12.91;100.00;97858.00;1678474;85;21095;-89
2022/09/12 00:36:56;;;;;;;;;;;;;;;12.92;100.00;97859.06;1662379;85;20172;-85
2022/09/12 00:39:21;;;;;;;;;;;;;;;12.92;100.00;97862.34;1673490;85;20223;-89
2022/09/12 00:41:47;;;;;;;;;;;;;;;12.90;100.00;97858.56;1689617;85;20404;-85
2022/09/12 00:44:26;;;;;;;;;;;;;;;12.90;100.00;97855.00;1678813;85;20737;-85
2022/09/12 00:46:58;;;;;;;;;;;;;;;12.93;100.00;97859.86;1687850;85;21133;-88
2022/09/12 00:49:33;;;;;;;;;;;;;;;12.90;100.00;97864.00;1661450;85;20496;-89
2022/09/12 00:52:12;;;;;;;;;;;;;;;12.90;100.00;97856.36;1661892;85;20140;-89
2022/09/12 00:54:42;;;;;;;;;;;;;;;12.91;100.00;97867.52;1661299;85;20215;-89
2022/09/12 00:57:08;;;;;;;;;;;;;;;12.91;100.00;97873.77;1661593;85;20177;-85
2022/09/12 00:59:40;;;;;;;;;;;;;;;12.91;100.00;97875.13;1665214;85;21043;-89
2022/09/12 01:02:06;;;;;;;;;;;;;;;12.91;100.00;97881.92;1661763;86;20171;-90
2022/09/12 01:04:32;;;;;;;;;;;;;;;12.91;100.00;97872.96;1675497;85;20771;-84
2022/09/12 01:06:58;;;;;;;;;;;;;;;12.92;100.00;97875.37;1618415;86;21361;-84
2022/09/12 01:09:24;;;;;;;;;;;;;;;12.90;100.00;97875.40;1672160;85;20163;-89
2022/09/12 01:11:50;;;;;;;;;;;;;;;12.88;100.00;97878.98;1661659;85;21002;-88
2022/09/12 01:14:16;;;;;;;;;;;;;;;12.83;100.00;97881.24;1661229;85;20153;-85
2022/09/12 01:16:43;;;;;;;;;;;;;;;12.83;100.00;97878.53;1661757;85;20179;-89
2022/09/12 01:19:36;;;;;;;;;;;;;;;12.82;100.00;97873.36;1661404;85;20196;-88
2022/09/12 01:22:23;;;;;;;;;;;;;;;12.83;100.00;97879.08;1642239;85;20167;-90
2022/09/12 01:25:18;;;;;;;;;;;;;;;12.80;100.00;97879.66;1686292;85;21158;-89
2022/09/12 01:28:04;;;;;;;;;;;;;;;12.78;100.00;97873.71;1689402;83;20165;-89
2022/09/12 01:30:42;;;;;;;;;;;;;;;12.76;100.00;97870.49;1652560;85;20169;-89
2022/09/12 01:33:29;;;;;;;;;;;;;;;12.74;100.00;97867.27;1689579;85;20177;-89
2022/09/12 01:36:08;;;;;;;;;;;;;;;12.66;100.00;97866.84;1670602;85;20232;-90
2022/09/12 01:39:03;;;;;;;;;;;;;;;12.66;100.00;97870.11;1664433;85;21059;-86
2022/09/12 01:41:36;;;;;;;;;;;;;;;12.63;100.00;97870.68;1677921;85;20307;-85
2022/09/12 01:44:37;;;;;;;;;;;;;;;12.63;100.00;97866.05;1689534;83;20182;-85
2022/09/12 01:47:16;;;;;;;;;;;;;;;12.62;100.00;97866.35;1685766;85;20164;-85
2022/09/12 01:49:51;;;;;;;;;;;;;;;12.60;100.00;97863.94;1648666;85;20525;-86
2022/09/12 01:52:21;;;;;;;;;;;;;;;12.58;100.00;97870.23;1661819;85;21936;-90
2022/09/12 01:54:49;;;;;;;;;;;;;;;12.57;100.00;97869.98;1663656;85;20226;-86
2022/09/12 01:57:23;;;;;;;;;;;;;;;12.59;100.00;97866.95;1688103;85;20200;-85
2022/09/12 01:59:51;;;;;;;;;;;;;;;12.59;100.00;97873.20;1671519;85;20229;-90
2022/09/12 02:02:29;;;;;;;;;;;;;;;12.60;100.00;97866.66;1661720;86;20205;-90
2022/09/12 02:05:05;;;;;;;;;;;;;;;12.62;100.00;97867.71;1645818;85;21339;-85
2022/09/12 02:07:34;;;;;;;;;;;;;;;12.63;100.00;97866.61;1661761;85;20141;-85
2022/09/12 02:10:12;;;;;;;;;;;;;;;12.61;100.00;97868.81;1667630;83;20182;-86
2022/09/12 02:12:45;;;;;;;;;;;;;;;12.59;100.00;97869.13;1689598;84;20216;-90
2022/09/12 02:15:10;;;;;;;;;;;;;;;12.56;100.00;97871.08;1680508;83;20147;-86
2022/09/12 02:17:41;;;;;;;;;;;;;;;12.55;100.00;97879.50;1661644;86;21065;-85
2022/09/12 02:20:13;;;;;;;;;;;;;;;12.53;100.00;97882.52;1661635;85;20456;-86
2022/09/12 02:22:39;;;;;;;;;;;;;;;12.50;100.00;97881.77;1663477;86;20156;-89
2022/09/12 02:25:05;;;;;;;;;;;;;;;12.48;100.00;97875.83;1667666;85;20199;-89
2022/09/12 02:27:36;;;;;;;;;;;;;;;12.47;100.00;97882.34;1689506;83;20558;-86
2022/09/12 02:30:01;;;;;;;;;;;;;;;12.42;100.00;97878.36;1684431;85;21365;-84
2022/09/12 02:32:37;;;;;;;;;;;;;;;12.35;100.00;97873.28;1661643;85;20274;-90
2022/09/12 02:35:26;;;;;;;;;;;;;;;12.33;100.00;97870.62;1672766;85;20213;-85
2022/09/12 02:38:09;;;;;;;;;;;;;;;12.25;100.00;97865.84;1661358;86;20202;-85
2022/09/12 02:40:35;;;;;;;;;;;;;;;12.19;100.00;97869.17;1673984;85;20166;-85
2022/09/12 02:43:02;;;;;;;;;;;;;;;12.13;100.00;97857.59;1689552;85;21720;-90
2022/09/12 02:45:28;;;;;;;;;;;;;;;12.11;100.00;97865.75;1675672;85;20164;-90
2022/09/12 02:47:57;;;;;;;;;;;;;;;12.10;100.00;97863.59;1661656;86;20187;-90
2022/09/12 02:50:23;;;;;;;;;;;;;;;12.04;100.00;97860.68;1661511;85;20499;-89
2022/09/12 02:52:50;;;;;;;;;;;;;;;12.02;100.00;97856.09;1661663;85;20720;-85
2022/09/12 02:55:15;;;;;;;;;;;;;;;12.05;100.00;97856.89;1684235;85;21087;-85
2022/09/12 02:57:41;;;;;;;;;;;;;;;12.05;100.00;97855.53;1689516;85;20799;-90
2022/09/12 03:00:08;;;;;;;;;;;;;;;12.10;100.00;97859.52;1689337;85;20181;-90
2022/09/12 03:02:52;;;;;;;;;;;;;;;12.12;100.00;97858.66;1689580;85;20169;-85
2022/09/12 03:05:34;;;;;;;;;;;;;;;12.13;100.00;97862.19;1689408;85;20177;-90
2022/09/12 03:08:18;;;;;;;;;;;;;;;12.13;100.00;97865.74;1687431;85;21054;-89
2022/09/12 03:10:53;;;;;;;;;;;;;;;12.12;100.00;97866.81;1661711;85;20469;-89
2022/09/12 03:13:41;;;;;;;;;;;;;;;12.12;100.00;97864.66;1661672;85;20319;-89
2022/09/12 03:16:16;;;;;;;;;;;;;;;12.04;100.00;97862.59;1654201;85;20152;-85
2022/09/12 03:19:01;;;;;;;;;;;;;;;12.01;100.00;97866.70;1661590;85;20167;-85
2022/09/12 03:21:46;;;;;;;;;;;;;;;11.96;100.00;97868.67;1661789;85;21154;-85
2022/09/12 03:24:17;;;;;;;;;;;;;;;11.93;100.00;97869.27;1661223;85;20169;-90
2022/09/12 03:27:07;;;;;;;;;;;;;;;11.90;100.00;97877.45;1661695;85;20265;-90
2022/09/12 03:29:33;;;;;;;;;;;;;;;11.88;100.00;97879.66;1661653;85;20205;-89
2022/09/12 03:31:59;;;;;;;;;;;;;;;11.84;100.00;97884.04;1661724;86;20269;-85
2022/09/12 03:34:25;;;;;;;;;;;;;;;11.85;100.00;97887.02;1661671;85;21051;-90
2022/09/12 03:36:54;;;;;;;;;;;;;;;11.85;100.00;97881.03;1661674;85;20175;-89
2022/09/12 03:39:20;;;;;;;;;;;;;;;11.87;100.00;97882.09;1671957;85;20160;-86
2022/09/12 03:41:46;;;;;;;;;;;;;;;11.85;100.00;97878.86;1661894;85;20172;-86
2022/09/12 03:44:12;;;;;;;;;;;;;;;11.78;100.00;97887.33;1661620;85;20471;-90
2022/09/12 03:46:37;;;;;;;;;;;;;;;11.72;100.00;97883.63;1661925;85;21120;-88
2022/09/12 03:49:04;;;;;;;;;;;;;;;11.68;100.00;97883.94;1661310;85;20196;-90
2022/09/12 03:51:30;;;;;;;;;;;;;;;11.62;100.00;97885.09;1661936;85;20184;-89
2022/09/12 03:53:56;;;;;;;;;;;;;;;11.55;100.00;97884.91;1661618;85;20169;-89
2022/09/12 03:56:21;;;;;;;;;;;;;;;11.48;100.00;97885.80;1661686;85;20175;-90
2022/09/12 03:58:47;;;;;;;;;;;;;;;11.42;100.00;97890.20;1661577;85;21063;-90
2022/09/12 04:01:16;;;;;;;;;;;;;;;11.34;100.00;97884.05;1661881;85;20249;-84
2022/09/12 04:03:42;;;;;;;;;;;;;;;11.23;100.00;97883.36;1660756;85;20175;-85
2022/09/12 04:06:09;;;;;;;;;;;;;;;11.19;100.00;97887.17;1679830;85;20155;-89
2022/09/12 04:08:35;;;;;;;;;;;;;;;11.19;100.00;97889.08;1677072;85;20173;-90
2022/09/12 04:11:03;;;;;;;;;;;;;;;11.23;100.00;97881.45;1670214;83;21121;-85
2022/09/12 04:13:29;;;;;;;;;;;;;;;11.26;100.00;97884.13;1662909;85;21430;-85
2022/09/12 04:15:58;;;;;;;;;;;;;;;11.26;100.00;97890.36;1690300;85;20465;-85
2022/09/12 04:18:24;;;;;;;;;;;;;;;11.28;100.00;97892.26;1688493;85;20502;-86
2022/09/12 04:20:50;;;;;;;;;;;;;;;11.29;100.00;97887.09;1676383;85;20173;-90
2022/09/12 04:23:16;;;;;;;;;;;;;;;11.32;100.00;97895.74;1689387;85;21146;-85
2022/09/12 04:25:41;;;;;;;;;;;;;;;11.29;100.00;97890.35;1676761;85;20181;-85
2022/09/12 04:28:07;;;;;;;;;;;;;;;11.27;100.00;97892.52;1661745;86;20198;-86
2022/09/12 04:30:33;;;;;;;;;;;;;;;11.28;100.00;97888.19;1676260;85;20239;-87
2022/09/12 04:32:59;;;;;;;;;;;;;;;11.32;100.00;97891.13;1689725;85;20259;-89
2022/09/12 04:35:25;;;;;;;;;;;;;;;11.37;100.00;97897.87;1689418;85;21893;-89
2022/09/12 04:37:51;;;;;;;;;;;;;;;11.39;100.00;97897.02;1689522;85;20222;-85
2022/09/12 04:40:17;;;;;;;;;;;;;;;11.45;100.00;97897.23;1681178;85;20206;-90
2022/09/12 04:42:43;;;;;;;;;;;;;;;11.50;100.00;97899.88;1661811;85;20192;-84
2022/09/12 04:45:09;;;;;;;;;;;;;;;11.52;100.00;97905.01;1668813;85;20723;-84
2022/09/12 04:47:35;;;;;;;;;;;;;;;11.58;100.00;97900.59;1680074;85;21194;-89
2022/09/12 04:50:01;;;;;;;;;;;;;;;11.64;100.00;97905.98;1689755;85;20171;-90
2022/09/12 04:52:28;;;;;;;;;;;;;;;11.66;100.00;97903.23;1689908;85;20173;-89
2022/09/12 04:54:53;;;;;;;;;;;;;;;11.68;100.00;97902.94;1671392;85;20241;-89
2022/09/12 04:57:20;;;;;;;;;;;;;;;11.69;100.00;97901.28;1661635;85;20172;-89
2022/09/12 04:59:46;;;;;;;;;;;;;;;11.72;100.00;97914.84;1661492;85;21102;-87
2022/09/12 05:02:11;;;;;;;;;;;;;;;11.80;100.00;97919.67;1678923;85;20195;-85
2022/09/12 05:04:37;;;;;;;;;;;;;;;11.89;100.00;97922.55;1675163;85;20189;-86
2022/09/12 05:07:04;;;;;;;;;;;;;;;11.96;100.00;97918.36;1689176;85;20460;-86
2022/09/12 05:09:30;;;;;;;;;;;;;;;12.03;100.00;97916.09;1665765;83;20232;-85
2022/09/12 05:11:56;;;;;;;;;;;;;;;12.11;100.00;97916.00;1676580;85;21153;-90
2022/09/12 05:14:22;;;;;;;;;;;;;;;12.16;100.00;97912.42;1677408;85;20165;-90
2022/09/12 05:16:48;;;;;;;;;;;;;;;12.23;100.00;97921.03;1661836;85;20198;-85
2022/09/12 05:19:14;;;;;;;;;;;;;;;12.22;100.00;97922.09;1669629;85;20266;-89
2022/09/12 05:21:39;;;;;;;;;;;;;;;12.27;100.00;97922.84;1661910;85;20260;-85
2022/09/12 05:24:05;;;;;;;;;;;;;;;12.32;100.00;97928.78;1672342;85;21096;-86
2022/09/12 05:26:31;;;;;;;;;;;;;;;12.31;100.00;97934.77;1672963;85;20750;-89
2022/09/12 05:28:57;;;;;;;;;;;;;;;12.30;100.00;97936.39;1661642;85;20838;-85
2022/09/12 05:31:26;;;;;;;;;;;;;;;12.34;100.00;97936.08;1661780;85;20171;-85
2022/09/12 05:33:53;;;;;;;;;;;;;;;12.34;100.00;97938.80;1649761;86;20334;-86
2022/09/12 05:36:20;;;;;;;;;;;;;;;12.38;100.00;97941.98;1679658;85;21065;-85
2022/09/12 05:38:46;;;;;;;;;;;;;;;12.43;100.00;97947.91;1684254;85;20452;-90
2022/09/12 05:41:16;;;;;;;;;;;;;;;12.40;100.00;97945.23;1661952;85;20720;-90
2022/09/12 05:43:42;;;;;;;;;;;;;;;12.47;100.00;97949.47;1661297;85;20197;-86
2022/09/12 05:46:11;;;;;;;;;;;;;;;12.51;100.00;97950.52;1671404;85;20170;-86
2022/09/12 05:48:38;;;;;;;;;;;;;;;12.60;100.00;97948.20;1675024;85;21110;-88
2022/09/12 05:51:10;;;;;;;;;;;;;;;12.68;100.00;97943.45;1661251;85;37467;-90
2022/09/12 05:53:36;;;;;;;;;;;;;;;12.76;100.00;97941.18;1661626;85;20456;-85
2022/09/12 05:56:08;;;;;;;;;;;;;;;12.85;100.00;97952.45;1678091;85;20437;-90
2022/09/12 05:58:35;;;;;;;;;;;;;;;12.94;100.00;97949.31;1689032;85;20552;-84
2022/09/12 06:01:06;;;;;;;;;;;;;;;13.08;100.00;97948.02;1651092;85;21814;-89
2022/09/12 06:03:33;;;;;;;;;;;;;;;13.14;100.00;97941.36;1669997;85;20173;-85
2022/09/12 06:06:03;;;;;;;;;;;;;;;13.20;98.75;97952.45;1679624;85;20854;-90
2022/09/12 06:08:31;;;;;;;;;;;;;;;13.22;98.47;97951.59;1687144;85;20653;-85
2022/09/12 06:11:02;;;;;;;;;;;;;;;13.21;98.08;97950.53;1670551;85;20183;-89
2022/09/12 06:13:30;;;;;;;;;;;;;;;13.23;96.58;97944.23;1676266;83;21083;-85
2022/09/12 06:15:56;;;;;;;;;;;;;;;13.31;97.31;97948.99;1633945;85;20196;-84
2022/09/12 06:18:22;;;;;;;;;;;;;;;13.19;92.64;97959.52;1668116;85;20201;-84
2022/09/12 06:20:47;;;;;;;;;;;;;;;13.25;94.79;97959.17;1668734;85;20184;-89
2022/09/12 06:23:13;;;;;;;;;;;;;;;13.23;93.46;97955.92;1694513;84;20279;-89
2022/09/12 06:25:43;;;;;;;;;;;;;;;13.28;95.33;97957.77;1679120;84;21087;-89
2022/09/12 06:28:08;;;;;;;;;;;;;;;13.15;91.84;97962.56;1680529;83;20179;-86
2022/09/12 06:30:34;;;;;;;;;;;;;;;13.23;93.84;97968.72;1725968;82;20288;-90
2022/09/12 06:33:00;;;;;;;;;;;;;;;13.23;91.82;97961.36;1730638;81;20182;-90
2022/09/12 06:35:26;;;;;;;;;;;;;;;13.23;91.28;97962.72;1716644;82;20195;-90
2022/09/12 06:37:51;;;;;;;;;;;;;;;13.31;91.68;97963.15;1725956;82;21095;-85
2022/09/12 06:40:17;;;;;;;;;;;;;;;13.38;90.60;97971.19;1716578;82;20259;-85
2022/09/12 06:42:43;;;;;;;;;;;;;;;13.45;92.01;97974.89;1732169;82;20204;-85
2022/09/12 06:45:10;;;;;;;;;;;;;;;13.77;90.21;97975.41;1728354;82;20704;-89
2022/09/12 06:47:36;;;;;;;;;;;;;;;13.54;88.35;97975.26;1743279;82;20441;-89
2022/09/12 06:50:02;;;;;;;;;;;;;;;13.74;88.83;97975.42;1738912;82;21909;-88
2022/09/12 06:52:28;;;;;;;;;;;;;;;14.49;90.43;97974.22;1690932;83;20305;-84
2022/09/12 06:54:53;;;;;;;;;;;;;;;15.12;86.12;97976.03;1725222;82;20315;-90
2022/09/12 06:57:19;;;;;;;;;;;;;;;15.39;78.51;97975.11;1716487;81;20528;-89
2022/09/12 06:59:45;;;;;;;;;;;;;;;16.17;77.83;97989.16;1681278;84;20259;-90
2022/09/12 07:02:11;;;;;;;;;;;;;;;16.31;74.89;97984.36;1667959;84;21887;-85
2022/09/12 07:04:37;;;;;;;;;;;;;;;16.71;74.51;97982.14;1722394;82;20252;-85
2022/09/12 07:07:02;;;;;;;;;;;;;;;16.64;74.12;97980.66;1726452;82;20750;-85
2022/09/12 07:09:29;;;;;;;;;;;;;;;17.00;74.57;97980.14;1720637;82;20471;-89
2022/09/12 07:11:55;;;;;;;;;;;;;;;17.60;73.92;97980.05;1723567;82;20234;-85
2022/09/12 07:14:21;;;;;;;;;;;;;;;16.57;74.72;97991.26;1727086;82;21082;-85
2022/09/12 07:16:47;;;;;;;;;;;;;;;16.35;76.00;97990.83;1720918;82;20701;-89
2022/09/12 07:19:12;;;;;;;;;;;;;;;16.17;77.98;97994.63;1731281;82;20237;-88
2022/09/12 07:21:38;;;;;;;;;;;;;;;16.67;78.63;97992.11;1720899;82;20210;-85
2022/09/12 07:24:05;;;;;;;;;;;;;;;16.34;73.67;97994.69;1702461;82;20191;-85
2022/09/12 07:26:31;;;;;;;;;;;;;;;16.33;76.41;98004.02;1724781;82;21052;-85
2022/09/12 07:28:58;;;;;;;;;;;;;;;16.89;71.49;98011.13;1714430;82;20382;-89
2022/09/12 07:31:24;;;;;;;;;;;;;;;17.35;69.01;98009.13;1722915;82;20527;-88
2022/09/12 07:33:50;;;;;;;;;;;;;;;18.36;70.51;98011.41;1723687;82;20498;-85
2022/09/12 07:36:18;;;;;;;;;;;;;;;17.83;64.47;98018.23;1723476;82;20174;-85
2022/09/12 07:38:44;;;;;;;;;;;;;;;17.60;64.23;98018.41;1718662;82;21049;-85
2022/09/12 07:41:14;;;;;;;;;;;;;;;18.49;64.00;98018.05;1730005;82;20205;-85
2022/09/12 07:43:44;;;;;;;;;;;;;;;18.39;63.70;98023.11;1727872;82;20153;-89
2022/09/12 07:46:08;;;;;;;;;;;;;;;18.66;61.82;98021.86;1657492;84;20233;-85
2022/09/12 07:48:34;;;;;;;;;;;;;;;18.72;62.60;98020.53;1659821;85;20265;-85
2022/09/12 07:51:01;;;;;;;;;;;;;;;18.15;64.15;98023.12;1660903;85;21886;-90
2022/09/12 07:53:32;;;;;;;;;;;;;;;17.91;66.19;98027.00;1721926;82;20276;-85
2022/09/12 07:55:58;;;;;;;;;;;;;;;16.84;68.43;98029.90;1722530;82;20479;-85
2022/09/12 07:58:24;;;;;;;;;;;;;;;15.76;71.30;98027.72;1720192;82;20571;-90
2022/09/12 08:00:50;;;;;;;;;;;;;;;17.18;67.71;98022.27;1731558;82;20761;-89
2022/09/12 08:03:16;;;;;;;;;;;;;;;17.63;65.26;98026.00;1723880;82;20735;-88
2022/09/12 08:05:42;;;;;;;;;;;;;;;17.66;62.07;98023.97;1730793;82;20238;-90
2022/09/12 08:08:08;;;;;;;;;;;;;;;18.49;64.09;98022.16;1724530;80;20282;-85
2022/09/12 08:10:34;;;;;;;;;;;;;;;19.65;62.33;98020.12;1723129;81;20251;-85
2022/09/12 08:13:02;;;;;;;;;;;;;;;19.14;60.44;98029.57;1723473;82;20235;-88
2022/09/12 08:15:28;;;;;;;;;;;;;;;18.59;62.50;98024.52;1722984;82;21088;-85
2022/09/12 08:17:54;;;;;;;;;;;;;;;17.99;65.08;98029.72;1729635;82;20495;-85
2022/09/12 08:20:20;;;;;;;;;;;;;;;18.03;63.35;98032.59;1727273;80;20303;-89
2022/09/12 08:22:46;;;;;;;;;;;;;;;17.24;66.16;98038.52;1719281;82;21172;-86
2022/09/12 08:25:12;;;;;;;;;;;;;;;17.49;64.59;98039.87;1724568;82;20317;-85
2022/09/12 08:27:38;;;;;;;;;;;;;;;17.96;60.93;98036.44;1730826;82;21881;-91
2022/09/12 08:30:05;;;;;;;;;;;;;;;18.36;60.38;98034.72;1708770;82;20223;-90
2022/09/12 08:32:33;;;;;;;;;;;;;;;18.22;57.45;98030.28;1724499;82;20354;-85
2022/09/12 08:34:59;;;;;;;;;;;;;;;18.30;57.87;98029.44;1727011;82;20544;-90
2022/09/12 08:37:25;;;;;;;;;;;;;;;19.95;54.66;98016.63;1724059;82;20858;-90
2022/09/12 08:39:51;;;;;;;;;;;;;;;21.79;52.16;98019.92;1721131;82;21030;-88
2022/09/12 08:42:23;;;;;;;;;;;;;;;22.09;48.61;98015.39;1718029;82;20196;-86
2022/09/12 08:45:08;;;;;;;;;;;;;;;21.29;47.07;98007.51;1732491;80;20170;-90
2022/09/12 08:47:38;;;;;;;;;;;;;;;22.17;47.19;98005.55;1714033;82;20220;-89
2022/09/12 08:50:11;;;;;;;;;;;;;;;22.44;46.71;98012.70;1714921;82;20256;-90
2022/09/12 08:52:44;;;;;;;;;;;;;;;21.60;50.54;98015.62;1723540;82;21848;-90
2022/09/12 08:55:22;;;;;;;;;;;;;;;21.04;51.76;98015.02;1717291;82;20197;-89
2022/09/12 08:57:48;;;;;;;;;;;;;;;20.83;51.60;98013.78;1682780;83;20221;-85
2022/09/12 09:00:14;;;;;;;;;;;;;;;19.39;53.96;98018.93;1665932;85;20191;-89
2022/09/12 09:02:55;;;;;;;;;;;;;;;18.25;57.03;98009.61;1679168;85;20201;-85
2022/09/12 09:05:25;;;;;;;;;;;;;;;17.99;60.39;98016.58;1661666;85;21122;-89
2022/09/12 09:08:07;;;;;;;;;;;;;;;18.21;59.42;98012.79;1660597;83;20991;-85
2022/09/12 09:10:51;;;;;;;;;;;;;;;18.07;60.51;97997.12;1643185;85;20224;-85
2022/09/12 09:16:31;;;;;;;;;;;;;;;17.46;61.92;98006.85;1721472;80;20208;-85
2022/09/12 09:18:59;;;;;;;;;;;;;;;16.58;63.29;98013.41;1724332;82;21240;-85
2022/09/12 09:21:32;;;;;;;;;;;;;;;16.68;62.96;98016.40;1690419;82;20546;-88
2022/09/12 09:24:07;;;;;;;;;;;;;;;16.53;62.77;98013.55;1718317;82;20226;-85
2022/09/12 09:26:39;;;;;;;;;;;;;;;16.25;64.96;98016.30;1721511;82;20287;-88
2022/09/12 09:29:07;;;;;;;;;;;;;;;15.96;65.74;98014.88;1723445;82;20222;-85
2022/09/12 09:31:36;;;;;;;;;;;;;;;15.91;65.38;98016.95;1718647;82;21989;-89
2022/09/12 09:34:06;;;;;;;;;;;;;;;15.39;67.24;98012.53;1703159;82;20197;-89
2022/09/12 09:36:51;;;;;;;;;;;;;;;15.50;68.10;98016.05;1719119;82;20191;-85
2022/09/12 09:39:30;;;;;;;;;;;;;;;15.33;68.79;98015.94;1722370;82;20170;-84
2022/09/12 09:42:02;;;;;;;;;;;;;;;15.15;67.23;98012.83;1726893;82;20196;-85
2022/09/12 09:44:28;;;;;;;;;;;;;;;15.31;67.43;98009.18;1727403;80;21686;-89
2022/09/12 09:46:54;;;;;;;;;;;;;;;15.21;65.81;98011.58;1717710;82;20222;-89
2022/09/12 09:49:20;;;;;;;;;;;;;;;15.10;65.96;98017.03;1724476;80;20183;-87
2022/09/12 09:51:46;;;;;;;;;;;;;;;15.06;66.61;98003.77;1723496;82;20226;-89
2022/09/12 09:54:21;;;;;;;;;;;;;;;15.29;66.86;97997.74;1715973;81;20208;-87
2022/09/12 09:56:47;;;;;;;;;;;;;;;15.56;65.48;98000.35;1727871;80;20950;-89
2022/09/12 09:59:19;;;;;;;;;;;;;;;15.74;64.71;98002.65;1719840;82;20230;-90
2022/09/12 10:01:56;;;;;;;;;;;;;;;15.74;64.09;98004.81;1724578;82;20538;-89
2022/09/12 10:04:26;;;;;;;;;;;;;;;15.95;64.82;98000.97;1722478;82;20403;-88
2022/09/12 10:06:57;;;;;;;;;;;;;;;15.97;64.06;98004.19;1727185;82;20681;-89
2022/09/12 10:09:26;;;;;;;;;;;;;;;16.01;64.86;98005.74;1724698;80;21144;-87
2022/09/12 10:11:53;;;;;;;;;;;;;;;16.08;64.17;98016.47;1727430;82;20820;-85
2022/09/12 10:14:33;;;;;;;;;;;;;;;15.97;63.01;98012.37;1706726;82;20224;-87
2022/09/12 10:17:00;;;;;;;;;;;;;;;16.04;63.66;98012.73;1727508;82;20221;-85
2022/09/12 10:19:34;;;;;;;;;;;;;;;16.22;60.41;98011.44;1731900;82;20170;-88
2022/09/12 10:22:02;;;;;;;;;;;;;;;16.40;62.42;98010.93;1728148;80;21041;-85
2022/09/12 10:24:40;;;;;;;;;;;;;;;16.60;62.69;98018.55;1724896;82;20490;-84
2022/09/12 10:27:14;;;;;;;;;;;;;;;16.41;59.10;98020.73;1721715;82;20315;-90
2022/09/12 10:29:53;;;;;;;;;;;;;;;16.04;59.17;98017.40;1727487;82;20260;-84
2022/09/12 10:32:25;;;;;;;;;;;;;;;16.31;61.23;98010.34;1729677;80;20189;-84
2022/09/12 10:34:53;;;;;;;;;;;;;;;16.56;62.04;98006.06;1725367;82;21148;-91
2022/09/12 10:37:24;;;;;;;;;;;;;;;16.44;60.87;98003.72;1729928;82;20190;-85
2022/09/12 10:39:56;;;;;;;;;;;;;;;16.03;63.68;98015.23;1722237;82;21106;-89
2022/09/12 10:42:51;;;;;;;;;;;;;;;15.77;64.10;98012.94;1718404;82;21081;-89
2022/09/12 10:45:19;;;;;;;;;;;;;;;15.84;63.18;98011.13;1734995;80;20284;-85
2022/09/12 10:47:45;;;;;;;;;;;;;;;15.93;63.56;98006.51;1733614;82;21089;-84
2022/09/12 10:50:24;;;;;;;;;;;;;;;15.93;64.37;98010.05;1727136;82;20227;-89
2022/09/12 10:52:52;;;;;;;;;;;;;;;15.67;65.63;98009.92;1729589;82;20319;-84
2022/09/12 10:55:18;;;;;;;;;;;;;;;15.71;66.34;98004.06;1726757;82;20639;-84
2022/09/12 10:58:02;;;;;;;;;;;;;;;15.62;65.74;98005.94;1724919;80;20192;-89
2022/09/12 11:00:29;;;;;;;;;;;;;;;15.57;65.32;98003.89;1719644;82;21040;-84
2022/09/12 11:03:15;;;;;;;;;;;;;;;15.60;66.02;98001.33;1725443;82;20208;-84
2022/09/12 11:05:53;;;;;;;;;;;;;;;15.75;65.73;98002.89;1678883;82;20206;-84
2022/09/12 11:08:23;;;;;;;;;;;;;;;16.01;64.42;97999.72;1726318;82;20220;-83
2022/09/12 11:10:55;;;;;;;;;;;;;;;16.25;63.15;97999.89;1734786;80;20308;-85
2022/09/12 11:13:46;;;;;;;;;;;;;;;16.60;63.96;98002.14;1727479;81;21041;-86
2022/09/12 11:16:33;;;;;;;;;;;;;;;16.70;63.49;98005.16;1704205;82;20141;-87
2022/09/12 11:19:03;;;;;;;;;;;;;;;16.28;61.63;98010.98;1724086;82;20193;-86
2022/09/12 11:21:48;;;;;;;;;;;;;;;16.10;63.07;98005.22;1725203;80;20235;-86
2022/09/12 11:24:40;;;;;;;;;;;;;;;16.25;63.75;98009.45;1743073;82;20273;-87
2022/09/12 11:27:19;;;;;;;;;;;;;;;16.35;62.46;98001.77;1738006;82;21067;-87
2022/09/12 11:29:50;;;;;;;;;;;;;;;16.54;61.14;97993.84;1707716;82;20271;-87
2022/09/12 11:32:22;;;;;;;;;;;;;;;16.94;61.51;97985.55;1722017;82;20186;-86
2022/09/12 11:34:52;;;;;;;;;;;;;;;17.00;58.82;97999.30;1713566;80;20547;-85
2022/09/12 11:37:27;;;;;;;;;;;;;;;16.69;58.71;98000.26;1729958;82;20184;-86
2022/09/12 11:39:53;;;;;;;;;;;;;;;16.74;60.87;98001.45;1713951;82;20996;-88
2022/09/12 11:42:22;;;;;;;;;;;;;;;16.83;60.02;98010.47;1721188;82;20183;-86
2022/09/12 11:44:55;;;;;;;;;;;;;;;16.87;60.76;97997.78;1714167;80;20436;-85
2022/09/12 11:47:20;;;;;;;;;;;;;;;16.94;60.43;98004.71;1729469;80;20193;-88
2022/09/12 11:49:50;;;;;;;;;;;;;;;17.10;60.93;98003.91;1738293;82;20248;-86
2022/09/12 11:52:18;;;;;;;;;;;;;;;17.08;59.69;98002.59;1737219;80;21244;-85
2022/09/12 11:55:04;;;;;;;;;;;;;;;17.20;60.83;98015.90;1720442;82;20197;-85
2022/09/12 11:57:48;;;;;;;;;;;;;;;17.03;57.69;98020.01;1721029;80;20397;-85
2022/09/12 12:00:19;;;;;;;;;;;;;;;16.96;58.80;98012.03;1725753;80;20571;-86
2022/09/12 12:03:08;;;;;;;;;;;;;;;17.04;57.21;98009.30;1733739;82;20203;-88
2022/09/12 12:05:53;;;;;;;;;;;;;;;17.10;57.35;98006.65;1714967;82;21127;-88
2022/09/12 12:08:23;;;;;;;;;;;;;;;17.27;58.02;98005.03;1730534;82;20250;-86
2022/09/12 12:10:59;;;;;;;;;;;;;;;17.69;59.17;98010.20;1727469;80;20731;-86
2022/09/12 12:13:46;;;;;;;;;;;;;;;17.95;58.30;98001.93;1702386;82;20466;-85
2022/09/12 12:16:15;;;;;;;;;;;;;;;17.92;58.99;98009.42;1727200;82;20490;-85
2022/09/12 12:18:41;;;;;;;;;;;;;;;17.49;55.74;98011.67;1725075;82;21081;-88
2022/09/12 12:21:31;;;;;;;;;;;;;;;17.22;55.38;98006.55;1726018;80;20307;-87
2022/09/12 12:24:09;;;;;;;;;;;;;;;17.23;57.87;98009.53;1724649;82;20484;-88
2022/09/12 12:26:42;;;;;;;;;;;;;;;17.32;56.88;98002.11;1728642;82;20165;-87
2022/09/12 12:29:12;;;;;;;;;;;;;;;17.38;56.54;98006.30;1718888;81;20226;-86
2022/09/12 12:32:01;;;;;;;;;;;;;;;17.46;57.35;98000.81;1728410;80;21228;-85
2022/09/12 12:34:28;;;;;;;;;;;;;;;17.60;57.67;97994.31;1721982;80;20167;-86
2022/09/12 12:36:55;;;;;;;;;;;;;;;17.75;57.27;97999.31;1726406;82;20220;-89
2022/09/12 12:39:33;;;;;;;;;;;;;;;17.80;56.67;98000.52;1730301;82;20953;-86
2022/09/12 12:41:59;;;;;;;;;;;;;;;17.64;55.28;98010.36;1708326;82;20176;-86
2022/09/12 12:44:49;;;;;;;;;;;;;;;17.43;54.26;98002.84;1727840;82;21679;-88
2022/09/12 12:47:23;;;;;;;;;;;;;;;17.34;55.45;98008.06;1756737;80;20189;-88
2022/09/12 12:49:52;;;;;;;;;;;;;;;17.40;57.06;98003.47;1720005;82;20492;-85
2022/09/12 12:52:18;;;;;;;;;;;;;;;17.43;57.03;97997.36;1723453;82;20297;-87
2022/09/12 12:54:48;;;;;;;;;;;;;;;17.44;55.64;98007.75;1715536;82;20183;-85
2022/09/12 12:57:20;;;;;;;;;;;;;;;17.43;54.77;98007.48;1723248;80;21016;-86
2022/09/12 12:59:52;;;;;;;;;;;;;;;17.37;54.36;98006.06;1728219;80;20493;-86
2022/09/12 13:02:29;;;;;;;;;;;;;;;17.16;51.67;97994.38;1730127;82;20233;-88